Terminal Aerodrome Forecast
Issued by NWS

Home | Current Version | Previous Version | Text Only | Print | Product List | Glossary Off
Versions: 1 2 3 4 5 6 7 8 9 10 11 12 13 14

000
FTUS43 KIWX 151134
TAFSBN
TAF
KSBN 151134Z 1512/1612 23009KT P6SM OVC025
     FM151400 23012G19KT P6SM OVC025
      TEMPO 1514/1518 5SM -SHSN
     FM151800 27015G23KT P6SM VCSH OVC025
     FM160000 26012KT 5SM -SHSN OVC025
     FM160500 24007KT P6SM SCT025 BKN035=

USA.gov is the U.S. government's official web portal to all federal, state and local government web resources and services.